createdAt,value
2022-10-12T00:00:56.732Z,2.50
2022-10-12T00:03:24.954Z,2.33
2022-10-12T00:06:04.370Z,2.67
2022-10-12T00:08:32.967Z,2.70
2022-10-12T00:11:01.221Z,2.70
2022-10-12T00:13:29.329Z,2.60
2022-10-12T00:15:57.815Z,2.60
2022-10-12T00:18:25.851Z,2.50
2022-10-12T00:21:03.285Z,2.33
2022-10-12T00:23:31.661Z,2.90
2022-10-12T00:26:03.102Z,2.60
2022-10-12T00:28:31.157Z,3.10
2022-10-12T00:30:59.275Z,2.67
2022-10-12T00:33:28.975Z,2.87
2022-10-12T00:35:56.999Z,3.10
2022-10-12T00:38:26.362Z,2.70
2022-10-12T00:40:54.368Z,2.70
2022-10-12T00:43:31.725Z,3.03
2022-10-12T00:46:02.546Z,2.77
2022-10-12T00:48:30.970Z,3.10
2022-10-12T00:51:02.436Z,3.57
2022-10-12T00:53:38.074Z,2.93
2022-10-12T00:56:10.441Z,3.07
2022-10-12T00:58:39.114Z,2.90
2022-10-12T01:01:08.645Z,3.20
2022-10-12T01:03:37.617Z,2.77
2022-10-12T01:06:07.453Z,2.93
2022-10-12T01:08:38.449Z,3.17
2022-10-12T01:11:06.680Z,3.50
2022-10-12T01:13:34.991Z,3.30
2022-10-12T01:16:09.280Z,2.70
2022-10-12T01:18:45.674Z,3.13
2022-10-12T01:21:19.655Z,3.00
2022-10-12T01:24:16.445Z,3.27
2022-10-12T01:27:04.221Z,3.00
2022-10-12T01:30:04.032Z,3.40
2022-10-12T01:32:40.163Z,3.40
2022-10-12T01:35:13.041Z,2.90
2022-10-12T01:37:48.030Z,3.50
2022-10-12T01:40:21.627Z,3.30
2022-10-12T01:42:49.930Z,3.20
2022-10-12T01:45:19.904Z,3.70
2022-10-12T01:47:52.560Z,3.40
2022-10-12T01:50:23.017Z,3.73
2022-10-12T01:52:59.507Z,3.40
2022-10-12T01:55:38.200Z,3.90
2022-10-12T01:58:38.636Z,3.40
2022-10-12T02:01:14.237Z,4.13
2022-10-12T02:03:51.420Z,4.03
2022-10-12T02:06:21.953Z,3.93
2022-10-12T02:08:57.653Z,3.87
2022-10-12T02:11:27.725Z,3.80
2022-10-12T02:14:00.191Z,3.80
2022-10-12T02:16:32.881Z,3.83
2022-10-12T02:19:05.866Z,3.87
2022-10-12T02:21:35.126Z,3.90
2022-10-12T02:24:07.239Z,3.53
2022-10-12T02:26:38.525Z,3.63
2022-10-12T02:29:12.007Z,3.90
2022-10-12T02:31:46.532Z,4.07
2022-10-12T02:34:19.289Z,3.70
2022-10-12T02:36:52.411Z,4.27
2022-10-12T02:39:24.531Z,4.20
2022-10-12T02:41:56.895Z,3.70
2022-10-12T02:44:28.546Z,3.83
2022-10-12T02:46:58.777Z,4.13
2022-10-12T02:49:31.002Z,4.13
2022-10-12T02:51:59.877Z,3.80
2022-10-12T02:54:28.008Z,4.20
2022-10-12T02:56:56.043Z,3.83
2022-10-12T02:59:24.099Z,3.93
2022-10-12T03:01:52.198Z,3.80
2022-10-12T03:04:20.187Z,4.30
2022-10-12T03:06:49.522Z,3.70
2022-10-12T03:09:17.525Z,4.27
2022-10-12T03:11:45.545Z,4.17
2022-10-12T03:14:14.828Z,4.20
2022-10-12T03:16:43.861Z,3.90
2022-10-12T03:19:12.000Z,4.07
2022-10-12T03:21:40.050Z,3.60
2022-10-12T03:24:09.531Z,4.00
2022-10-12T03:26:37.573Z,3.33
2022-10-12T03:29:05.852Z,4.07
2022-10-12T03:31:33.894Z,3.43
2022-10-12T03:34:01.971Z,3.43
2022-10-12T03:36:30.058Z,3.50
2022-10-12T03:38:58.126Z,3.23
2022-10-12T03:41:27.571Z,3.47
2022-10-12T03:43:55.550Z,3.27
2022-10-12T03:46:23.542Z,3.37
2022-10-12T03:48:51.598Z,3.27
2022-10-12T03:51:19.580Z,3.67
2022-10-12T03:53:47.589Z,3.53
2022-10-12T03:56:15.620Z,3.27
2022-10-12T03:58:45.014Z,3.40
2022-10-12T04:01:13.114Z,4.10
2022-10-12T04:03:41.137Z,3.40
2022-10-12T04:06:09.233Z,3.33
2022-10-12T04:08:39.868Z,3.37
2022-10-12T04:11:08.185Z,3.20
2022-10-12T04:13:36.447Z,3.03
2022-10-12T04:16:07.589Z,3.60
2022-10-12T04:18:35.891Z,3.00
2022-10-12T04:21:05.490Z,3.20
2022-10-12T04:23:33.474Z,3.20
2022-10-12T04:26:01.486Z,2.87
2022-10-12T04:28:29.544Z,2.90
2022-10-12T04:30:57.586Z,3.20
2022-10-12T04:33:27.171Z,3.43
2022-10-12T04:35:55.182Z,3.07
2022-10-12T04:38:23.221Z,3.23
2022-10-12T04:40:51.571Z,3.40
2022-10-12T04:43:19.578Z,3.50
2022-10-12T04:45:55.473Z,3.20
2022-10-12T04:48:23.890Z,2.90
2022-10-12T04:50:53.600Z,3.20
2022-10-12T04:53:21.736Z,3.17
2022-10-12T04:55:49.762Z,2.90
2022-10-12T04:58:17.950Z,2.80
2022-10-12T05:00:46.371Z,3.07
2022-10-12T05:03:14.345Z,2.83
2022-10-12T05:05:42.553Z,3.10
2022-10-12T05:08:12.973Z,3.30
2022-10-12T05:10:40.993Z,3.23
2022-10-12T05:13:09.147Z,2.63
2022-10-12T05:15:37.178Z,2.80
2022-10-12T05:18:05.530Z,2.93
2022-10-12T05:20:33.548Z,3.00
2022-10-12T05:23:01.529Z,3.57
2022-10-12T05:25:31.067Z,3.50
2022-10-12T05:27:59.215Z,3.70
2022-10-12T05:30:27.390Z,3.30
2022-10-12T05:32:55.409Z,3.30
2022-10-12T05:35:23.445Z,3.97
2022-10-12T05:37:51.433Z,3.40
2022-10-12T05:40:19.854Z,3.60
2022-10-12T05:42:49.221Z,3.63
2022-10-12T05:45:17.367Z,3.07
2022-10-12T05:47:45.395Z,3.77
2022-10-12T05:50:13.377Z,3.90
2022-10-12T05:52:41.576Z,3.40
2022-10-12T05:55:10.465Z,3.63
2022-10-12T05:57:38.748Z,3.10
2022-10-12T06:00:10.139Z,3.60
2022-10-12T06:02:38.423Z,3.40
2022-10-12T06:05:07.366Z,3.70
2022-10-12T06:07:35.483Z,3.40
2022-10-12T06:10:03.780Z,3.50
2022-10-12T06:12:31.897Z,3.00
2022-10-12T06:14:59.975Z,3.33
2022-10-12T06:17:29.401Z,3.83
2022-10-12T06:19:57.557Z,3.50
2022-10-12T06:22:25.547Z,3.40
2022-10-12T06:24:53.545Z,3.20
2022-10-12T06:27:21.551Z,3.10
2022-10-12T06:29:49.562Z,3.60
2022-10-12T06:32:17.569Z,3.43
2022-10-12T06:34:46.901Z,3.63
2022-10-12T06:37:36.997Z,3.80
2022-10-12T06:40:02.994Z,3.97
2022-10-12T06:42:31.013Z,3.23
2022-10-12T06:44:59.028Z,3.33
2022-10-12T06:47:27.043Z,3.20
2022-10-12T06:49:56.452Z,3.90
2022-10-12T06:52:24.398Z,3.87
2022-10-12T06:54:52.392Z,3.60
2022-10-12T06:57:20.413Z,3.80
2022-10-12T06:59:48.410Z,3.70
2022-10-12T07:02:16.406Z,3.37
2022-10-12T07:04:44.403Z,3.33
2022-10-12T07:07:13.747Z,3.50
2022-10-12T07:09:41.858Z,3.30
2022-10-12T07:12:09.871Z,3.17
2022-10-12T07:14:37.877Z,3.47
2022-10-12T07:17:05.943Z,3.67
2022-10-12T07:19:33.941Z,3.47
2022-10-12T07:22:02.727Z,3.20
2022-10-12T07:24:36.344Z,3.60
2022-10-12T07:27:05.279Z,3.67
2022-10-12T07:29:33.830Z,3.30
2022-10-12T07:32:02.322Z,3.20
2022-10-12T07:34:30.381Z,2.80
2022-10-12T07:36:59.919Z,3.37
2022-10-12T07:39:28.436Z,3.97
2022-10-12T07:41:57.890Z,3.10
2022-10-12T07:44:25.966Z,3.20
2022-10-12T07:46:54.049Z,3.57
2022-10-12T07:49:22.120Z,3.67
2022-10-12T07:51:50.124Z,3.43
2022-10-12T07:54:21.723Z,3.03
2022-10-12T07:56:50.750Z,3.70
2022-10-12T07:59:20.175Z,3.70
2022-10-12T08:01:48.232Z,3.93
2022-10-12T08:04:16.346Z,3.67
2022-10-12T08:06:44.842Z,3.43
2022-10-12T08:09:12.896Z,3.27
2022-10-12T08:11:42.878Z,3.23
2022-10-12T08:14:15.103Z,3.70
2022-10-12T08:16:45.279Z,3.50
2022-10-12T08:19:13.681Z,4.43
2022-10-12T08:21:42.690Z,3.20
2022-10-12T08:24:10.982Z,3.13
2022-10-12T08:26:39.342Z,2.97
2022-10-12T08:29:08.447Z,3.07
2022-10-12T08:31:37.308Z,3.13
2022-10-12T08:34:07.020Z,3.37
2022-10-12T08:36:35.362Z,3.63
2022-10-12T08:39:06.689Z,3.10
2022-10-12T08:41:47.444Z,2.97
2022-10-12T08:44:36.063Z,3.33
2022-10-12T08:47:10.992Z,3.23
2022-10-12T08:49:44.194Z,3.43
2022-10-12T08:52:28.119Z,3.17
2022-10-12T08:55:00.269Z,3.37
2022-10-12T08:57:28.353Z,3.10
2022-10-12T08:59:56.373Z,2.80
2022-10-12T09:02:45.157Z,2.97
2022-10-12T09:05:22.269Z,2.80
2022-10-12T09:07:56.399Z,3.13
2022-10-12T09:10:34.274Z,3.37
2022-10-12T09:13:12.724Z,2.53
2022-10-12T09:15:50.447Z,3.13
2022-10-12T09:18:23.113Z,3.40
2022-10-12T09:20:53.810Z,3.00
2022-10-12T09:23:26.368Z,2.43
2022-10-12T09:25:57.867Z,2.67
2022-10-12T09:28:32.303Z,3.10
2022-10-12T09:31:11.126Z,3.87
2022-10-12T09:33:42.674Z,3.50
2022-10-12T09:36:17.244Z,2.77
2022-10-12T09:38:45.244Z,3.10
2022-10-12T09:41:20.791Z,2.83
2022-10-12T09:43:50.904Z,2.67
2022-10-12T09:46:23.969Z,2.70
2022-10-12T09:48:59.050Z,2.97
2022-10-12T09:51:29.274Z,2.83
2022-10-12T09:54:03.054Z,2.23
2022-10-12T09:56:39.678Z,2.63
2022-10-12T09:59:18.744Z,3.00
2022-10-12T10:01:59.144Z,3.10
2022-10-12T10:04:29.570Z,2.90
2022-10-12T10:07:14.825Z,3.10
2022-10-12T10:09:42.837Z,2.80
2022-10-12T10:12:15.398Z,2.50
2022-10-12T10:14:45.172Z,2.60
2022-10-12T10:17:16.365Z,2.33
2022-10-12T10:19:51.260Z,2.80
2022-10-12T10:22:21.454Z,2.33
2022-10-12T10:24:54.282Z,2.20
2022-10-12T10:27:37.185Z,2.40
2022-10-12T10:30:29.969Z,2.40
2022-10-12T10:33:14.793Z,2.23
2022-10-12T10:35:52.984Z,3.00
2022-10-12T10:38:22.933Z,2.73
2022-10-12T10:40:52.752Z,2.43
2022-10-12T10:43:25.687Z,2.10
2022-10-12T10:45:57.726Z,2.47
2022-10-12T10:48:29.526Z,2.40
2022-10-12T10:51:01.249Z,2.00
2022-10-12T10:53:33.891Z,2.40
2022-10-12T10:56:06.651Z,2.07
2022-10-12T10:58:38.074Z,2.60
2022-10-12T11:01:15.668Z,2.00
2022-10-12T11:03:52.686Z,1.77
2022-10-12T11:06:37.306Z,2.40
2022-10-12T11:09:12.374Z,1.93
2022-10-12T11:11:41.663Z,2.17
2022-10-12T11:14:15.594Z,2.03
2022-10-12T11:16:47.138Z,2.40
2022-10-12T11:19:30.725Z,2.30
2022-10-12T11:22:03.278Z,2.80
2022-10-12T11:24:36.278Z,3.10
2022-10-12T11:27:08.574Z,3.47
2022-10-12T11:29:38.730Z,2.20
2022-10-12T11:32:15.086Z,2.50
2022-10-12T11:34:50.689Z,2.53
2022-10-12T11:37:24.327Z,2.47
2022-10-12T11:39:55.331Z,3.77
2022-10-12T11:42:31.685Z,2.70
2022-10-12T11:45:03.009Z,2.60
2022-10-12T11:47:38.274Z,2.07
2022-10-12T11:50:26.253Z,2.50
2022-10-12T11:52:56.220Z,2.17
2022-10-12T11:55:39.459Z,2.57
2022-10-12T11:58:13.836Z,2.50
2022-10-12T12:00:56.115Z,2.23
2022-10-12T12:03:31.663Z,1.90
2022-10-12T12:06:40.862Z,1.83
2022-10-12T12:09:39.652Z,1.57
2022-10-12T12:12:18.990Z,1.80
2022-10-12T12:14:59.215Z,1.60
2022-10-12T12:17:31.900Z,2.10
2022-10-12T12:20:02.086Z,1.70
2022-10-12T12:22:47.635Z,2.37
2022-10-12T12:25:19.815Z,1.63
2022-10-12T12:27:51.912Z,2.30
2022-10-12T12:30:34.587Z,1.40
2022-10-12T12:33:05.730Z,1.90
2022-10-12T12:35:39.495Z,2.03
2022-10-12T12:38:30.745Z,1.60
2022-10-12T12:41:10.909Z,1.70
2022-10-12T12:43:54.874Z,2.07
2022-10-12T12:46:25.817Z,2.30
2022-10-12T12:49:02.566Z,3.07
2022-10-12T12:51:43.754Z,2.50
2022-10-12T12:54:19.706Z,2.37
2022-10-12T12:57:07.761Z,2.00
2022-10-12T13:00:11.443Z,1.60
2022-10-12T13:03:03.249Z,1.67
2022-10-12T13:06:03.742Z,2.27
2022-10-12T13:08:45.042Z,1.80
2022-10-12T13:11:45.194Z,1.87
2022-10-12T13:14:27.514Z,1.77
2022-10-12T13:20:03.766Z,1.90
2022-10-12T13:22:35.822Z,1.50
2022-10-12T13:25:07.821Z,1.97
2022-10-12T13:27:41.917Z,2.07
2022-10-12T13:30:19.245Z,2.00
2022-10-12T13:32:52.377Z,1.67
2022-10-12T13:35:31.534Z,1.90
2022-10-12T13:38:05.144Z,1.90
2022-10-12T13:40:37.238Z,1.87
2022-10-12T13:43:26.782Z,1.57
2022-10-12T13:45:55.467Z,2.70
2022-10-12T13:48:40.220Z,2.80
2022-10-12T13:51:25.212Z,2.60
2022-10-12T13:53:53.491Z,1.63
2022-10-12T13:56:25.699Z,2.13
2022-10-12T13:58:57.170Z,1.80
2022-10-12T14:01:25.585Z,1.80
2022-10-12T14:03:53.862Z,1.60
2022-10-12T14:06:28.851Z,1.70
2022-10-12T14:09:00.354Z,1.60
2022-10-12T14:11:29.513Z,1.80
2022-10-12T14:13:57.994Z,1.40
2022-10-12T14:16:26.124Z,2.03
2022-10-12T14:18:54.217Z,1.60
2022-10-12T14:21:26.703Z,1.60
2022-10-12T14:23:57.186Z,1.27
2022-10-12T14:26:30.994Z,1.80
2022-10-12T14:29:00.469Z,1.70
2022-10-12T14:31:47.560Z,1.87
2022-10-12T14:34:40.772Z,1.53
2022-10-12T14:37:27.217Z,1.70
2022-10-12T14:40:00.470Z,1.70
2022-10-12T14:42:31.201Z,1.60
2022-10-12T14:44:59.485Z,1.67
2022-10-12T14:47:29.897Z,1.60
2022-10-12T14:49:59.582Z,1.70
2022-10-12T14:52:36.447Z,1.40
2022-10-12T14:55:04.937Z,3.00
2022-10-12T14:57:33.402Z,2.40
2022-10-12T15:00:01.408Z,1.80
2022-10-12T15:02:31.182Z,1.60
2022-10-12T15:05:00.365Z,1.70
2022-10-12T15:07:32.541Z,1.90
2022-10-12T15:10:01.006Z,1.43
2022-10-12T15:12:30.546Z,1.80
2022-10-12T15:15:01.054Z,1.53
2022-10-12T15:17:29.230Z,1.60
2022-10-12T15:19:57.283Z,1.80
2022-10-12T15:22:27.118Z,1.73
2022-10-12T15:24:57.101Z,1.83
2022-10-12T15:27:25.102Z,1.77
2022-10-12T15:29:53.138Z,1.60
2022-10-12T15:32:21.703Z,1.73
2022-10-12T15:34:50.753Z,2.10
2022-10-12T15:37:18.801Z,1.60
2022-10-12T15:39:47.061Z,1.60
2022-10-12T15:42:16.407Z,1.80
2022-10-12T15:44:44.411Z,1.73
2022-10-12T15:47:12.609Z,1.77
2022-10-12T15:49:41.011Z,1.57
2022-10-12T15:52:11.482Z,1.73
2022-10-12T15:54:39.489Z,1.70
2022-10-12T15:57:08.005Z,1.63
2022-10-12T15:59:37.349Z,2.10
2022-10-12T16:02:05.369Z,2.20
2022-10-12T16:04:33.488Z,1.60
2022-10-12T16:07:02.086Z,5.53
2022-10-12T16:09:31.297Z,5.80
2022-10-12T16:11:59.294Z,5.97
2022-10-12T16:14:27.466Z,8.00
2022-10-12T16:16:56.813Z,5.63
2022-10-12T16:19:26.902Z,6.47
2022-10-12T16:21:54.945Z,5.90
2022-10-12T16:24:22.942Z,5.57
2022-10-12T16:26:50.994Z,5.43
2022-10-12T16:29:18.985Z,5.70
2022-10-12T16:31:47.041Z,5.90
2022-10-12T16:34:16.761Z,5.77
2022-10-12T16:36:44.798Z,5.87
2022-10-12T16:39:12.886Z,5.33
2022-10-12T16:41:40.901Z,5.03
2022-10-12T16:44:08.909Z,4.63
2022-10-12T16:46:37.841Z,4.20
2022-10-12T16:49:05.838Z,3.77
2022-10-12T16:51:35.255Z,4.03
2022-10-12T16:54:03.263Z,4.93
2022-10-12T16:56:32.466Z,5.13
2022-10-12T16:59:02.916Z,5.60
2022-10-12T17:01:30.977Z,5.67
2022-10-12T17:04:01.824Z,6.57
2022-10-12T17:06:30.557Z,5.93
2022-10-12T17:09:00.326Z,7.20
2022-10-12T17:11:28.364Z,6.33
2022-10-12T17:13:57.394Z,5.37
2022-10-12T17:16:43.031Z,5.57
2022-10-12T17:19:11.022Z,6.20
2022-10-12T17:21:42.028Z,6.40
2022-10-12T17:24:13.567Z,5.83
2022-10-12T17:26:42.085Z,5.43
2022-10-12T17:29:12.478Z,4.90
2022-10-12T17:31:40.747Z,5.63
2022-10-12T17:34:09.829Z,5.17
2022-10-12T17:36:38.018Z,5.73
2022-10-12T17:39:06.049Z,6.30
2022-10-12T17:41:35.426Z,7.60
2022-10-12T17:44:03.505Z,8.47
2022-10-12T17:46:31.513Z,7.90
2022-10-12T17:48:59.978Z,8.00
2022-10-12T17:51:28.458Z,7.83
2022-10-12T17:53:56.418Z,7.13
2022-10-12T17:56:25.352Z,7.63
2022-10-12T17:58:59.347Z,7.67
2022-10-12T18:01:29.014Z,7.83
2022-10-12T18:03:59.840Z,8.10
2022-10-12T18:06:28.869Z,9.97
2022-10-12T18:08:57.473Z,9.73
2022-10-12T18:11:25.986Z,12.00
2022-10-12T18:13:56.192Z,11.90
2022-10-12T18:16:27.301Z,11.33
2022-10-12T18:18:56.025Z,10.27
2022-10-12T18:21:25.974Z,9.90
2022-10-12T18:23:54.374Z,8.00
2022-10-12T18:26:22.750Z,9.43
2022-10-12T18:28:52.320Z,8.73
2022-10-12T18:31:22.399Z,7.90
2022-10-12T18:33:52.803Z,7.70
2022-10-12T18:36:22.893Z,7.87
2022-10-12T18:38:50.970Z,8.17
2022-10-12T18:41:22.312Z,7.57
2022-10-12T18:43:54.988Z,7.47
2022-10-12T18:46:23.778Z,6.40
2022-10-12T18:48:53.137Z,4.60
2022-10-12T18:51:23.441Z,4.50
2022-10-12T18:53:52.117Z,4.10
2022-10-12T18:56:20.437Z,3.73
2022-10-12T18:58:49.606Z,3.27
2022-10-12T19:01:21.080Z,3.80
2022-10-12T19:03:51.257Z,4.73
2022-10-12T19:06:24.931Z,4.60
2022-10-12T19:08:56.480Z,3.90
2022-10-12T19:11:27.380Z,3.40
2022-10-12T19:13:58.238Z,3.70
2022-10-12T19:16:28.219Z,3.63
2022-10-12T19:18:58.970Z,3.50
2022-10-12T19:21:30.616Z,4.00
2022-10-12T19:24:03.660Z,3.50
2022-10-12T19:26:33.914Z,3.20
2022-10-12T19:29:04.707Z,3.70
2022-10-12T19:31:34.096Z,3.80
2022-10-12T19:34:05.333Z,3.97
2022-10-12T19:36:36.430Z,3.70
2022-10-12T19:39:07.337Z,6.23
2022-10-12T19:41:35.722Z,7.83
2022-10-12T19:44:03.824Z,10.37
2022-10-12T19:46:32.310Z,10.20
2022-10-12T19:49:01.374Z,9.40
2022-10-12T19:51:30.779Z,6.83
2022-10-12T19:54:01.593Z,5.27
2022-10-12T19:56:30.070Z,4.70
2022-10-12T19:58:59.200Z,4.73
2022-10-12T20:01:31.239Z,3.90
2022-10-12T20:04:00.999Z,4.37
2022-10-12T20:06:32.115Z,4.07
2022-10-12T20:09:03.979Z,4.10
2022-10-12T20:11:34.580Z,4.77
2022-10-12T20:14:07.224Z,5.00
2022-10-12T20:16:38.436Z,3.77
2022-10-12T20:19:08.764Z,4.37
2022-10-12T20:21:39.986Z,4.80
2022-10-12T20:24:12.423Z,4.97
2022-10-12T20:26:42.678Z,4.70
2022-10-12T20:29:12.464Z,4.30
2022-10-12T20:31:42.740Z,4.43
2022-10-12T20:34:12.418Z,4.10
2022-10-12T20:36:43.315Z,4.47
2022-10-12T20:39:13.117Z,4.27
2022-10-12T20:41:41.277Z,5.13
2022-10-12T20:44:11.226Z,5.10
2022-10-12T20:46:39.277Z,4.70
2022-10-12T20:49:07.299Z,4.70
2022-10-12T20:51:37.003Z,4.17
2022-10-12T20:54:06.581Z,4.03
2022-10-12T20:56:36.187Z,3.30
2022-10-12T20:59:04.184Z,3.07
2022-10-12T21:01:32.288Z,3.13
2022-10-12T21:04:00.316Z,3.20
2022-10-12T21:06:29.006Z,3.50
2022-10-12T21:08:58.505Z,3.40
2022-10-12T21:11:26.748Z,3.23
2022-10-12T21:13:56.313Z,3.80
2022-10-12T21:16:24.692Z,4.03
2022-10-12T21:18:55.068Z,4.63
2022-10-12T21:21:23.987Z,5.53
2022-10-12T21:23:54.333Z,5.80
2022-10-12T21:26:23.685Z,3.83
2022-10-12T21:28:51.930Z,3.67
2022-10-12T21:31:22.511Z,4.20
2022-10-12T21:33:50.544Z,4.33
2022-10-12T21:36:20.708Z,4.20
2022-10-12T21:38:50.059Z,3.93
2022-10-12T21:41:20.236Z,4.07
2022-10-12T21:43:49.400Z,4.60
2022-10-12T21:46:20.320Z,5.43
2022-10-12T21:48:50.081Z,4.57
2022-10-12T21:51:19.549Z,3.60
2022-10-12T21:53:47.717Z,4.40
2022-10-12T21:56:18.082Z,3.53
2022-10-12T21:58:46.730Z,3.53
2022-10-12T22:01:16.885Z,3.57
2022-10-12T22:03:45.566Z,3.07
2022-10-12T22:06:19.024Z,3.77
2022-10-12T22:08:52.177Z,3.10
2022-10-12T22:11:20.268Z,3.50
2022-10-12T22:13:48.468Z,3.77
2022-10-12T22:16:18.730Z,3.87
2022-10-12T22:18:47.041Z,3.80
2022-10-12T22:21:18.197Z,4.20
2022-10-12T22:23:46.968Z,4.77
2022-10-12T22:26:17.311Z,3.90
2022-10-12T22:28:54.530Z,3.57
2022-10-12T22:31:24.636Z,3.60
2022-10-12T22:33:53.252Z,3.80
2022-10-12T22:36:22.691Z,3.70
2022-10-12T22:38:50.694Z,3.20
2022-10-12T22:41:20.621Z,3.53
2022-10-12T22:43:49.124Z,3.17
2022-10-12T22:46:17.626Z,3.60
2022-10-12T22:48:45.833Z,3.60
2022-10-12T22:51:17.013Z,3.40
2022-10-12T22:53:46.329Z,3.50
2022-10-12T22:56:16.687Z,3.50
2022-10-12T22:58:45.281Z,2.70
2022-10-12T23:01:15.247Z,2.80
2022-10-12T23:03:43.378Z,3.73
2022-10-12T23:06:13.465Z,3.30
2022-10-12T23:08:41.759Z,3.30
2022-10-12T23:11:13.268Z,3.47
2022-10-12T23:13:42.602Z,3.07
2022-10-12T23:16:13.083Z,3.20
2022-10-12T23:18:41.586Z,3.13
2022-10-12T23:21:11.301Z,3.27
2022-10-12T23:23:40.251Z,3.00
2022-10-12T23:26:11.868Z,3.30
2022-10-12T23:28:40.061Z,3.27
2022-10-12T23:31:17.250Z,3.57
2022-10-12T23:33:45.495Z,4.03
2022-10-12T23:36:16.326Z,3.23
2022-10-12T23:38:45.732Z,3.67
2022-10-12T23:41:15.322Z,3.30
2022-10-12T23:43:43.390Z,3.23
2022-10-12T23:46:12.446Z,3.00
2022-10-12T23:48:40.659Z,3.33
2022-10-12T23:51:08.842Z,3.80
2022-10-12T23:53:37.161Z,3.40
2022-10-12T23:56:07.243Z,3.50
2022-10-12T23:58:36.930Z,3.30
